Time;durP1;ratioP1;P1;durP2;ratioP2;P2;SDS_P1;SDS_P2;PMS_P1;PMS_P2;Temp;Humidity;BMP_temperature;BMP_pressure;BME280_temperature;BME280_humidity;BME280_pressure;Samples;Min_cycle;Max_cycle;Signal;HPM_P1;HPM_P2
2022/03/30 00:02:50;;;;;;;26.58;12.40;;;;;;;;;;6268926;22;20169;-85
2022/03/30 00:05:56;;;;;;;27.33;12.55;;;;;;;;;;6266631;22;20655;-86
2022/03/30 00:09:02;;;;;;;24.17;12.55;;;;;;;;;;6268877;22;20169;-85
2022/03/30 00:12:07;;;;;;;23.98;11.57;;;;;;;;;;6268615;22;20229;-87
2022/03/30 00:15:12;;;;;;;24.65;12.68;;;;;;;;;;6271121;22;20154;-87
2022/03/30 00:18:17;;;;;;;27.60;12.55;;;;;;;;;;6271392;22;20170;-85
2022/03/30 00:21:25;;;;;;;26.13;12.27;;;;;;;;;;6270960;22;20675;-87
2022/03/30 00:24:31;;;;;;;27.00;11.57;;;;;;;;;;6287310;22;20225;-86
2022/03/30 00:27:36;;;;;;;25.77;12.75;;;;;;;;;;6272944;22;20176;-85
2022/03/30 00:30:41;;;;;;;24.95;12.35;;;;;;;;;;6271406;22;20146;-87
2022/03/30 00:33:48;;;;;;;25.35;12.23;;;;;;;;;;6269657;22;20177;-84
2022/03/30 00:36:54;;;;;;;29.10;12.35;;;;;;;;;;6268540;22;20250;-85
2022/03/30 00:39:59;;;;;;;20.95;11.32;;;;;;;;;;6268197;22;20289;-87
2022/03/30 00:43:04;;;;;;;25.67;11.65;;;;;;;;;;6268039;22;20165;-87
2022/03/30 00:46:12;;;;;;;26.67;12.43;;;;;;;;;;6268680;22;20170;-85
2022/03/30 00:49:17;;;;;;;26.50;12.50;;;;;;;;;;6270344;22;20193;-85
2022/03/30 00:52:23;;;;;;;27.00;13.38;;;;;;;;;;6267509;22;20501;-86
2022/03/30 00:55:28;;;;;;;26.75;11.32;;;;;;;;;;6267021;22;20301;-86
2022/03/30 00:58:33;;;;;;;22.38;12.65;;;;;;;;;;6264599;22;20251;-86
2022/03/30 01:01:39;;;;;;;28.52;12.10;;;;;;;;;;6266049;22;20145;-87
2022/03/30 01:04:46;;;;;;;25.30;11.93;;;;;;;;;;6264908;22;20162;-87
2022/03/30 01:07:53;;;;;;;30.90;13.35;;;;;;;;;;6263569;22;20201;-85
2022/03/30 01:10:58;;;;;;;24.17;11.57;;;;;;;;;;6262682;22;20240;-86
2022/03/30 01:14:03;;;;;;;22.20;11.65;;;;;;;;;;6262756;22;20578;-87
2022/03/30 01:17:21;;;;;;;23.75;11.90;;;;;;;;;;6263167;22;20177;-86
2022/03/30 01:20:27;;;;;;;27.90;11.55;;;;;;;;;;6282808;22;20232;-85
2022/03/30 01:23:33;;;;;;;22.15;11.70;;;;;;;;;;6264073;22;20162;-87
2022/03/30 01:26:39;;;;;;;23.48;12.20;;;;;;;;;;6263873;22;20236;-86
2022/03/30 01:33:07;;;;;;;23.23;12.43;;;;;;;;;;6282904;22;20157;-86
2022/03/30 01:36:13;;;;;;;36.83;14.02;;;;;;;;;;6263777;22;20185;-86
2022/03/30 01:39:19;;;;;;;22.85;11.75;;;;;;;;;;6263864;22;20169;-87
2022/03/30 01:42:28;;;;;;;30.17;12.60;;;;;;;;;;6265523;22;20161;-86
2022/03/30 01:45:33;;;;;;;23.10;12.38;;;;;;;;;;6262540;22;20207;-86
2022/03/30 01:48:38;;;;;;;24.92;12.13;;;;;;;;;;6284516;22;20251;-86
2022/03/30 01:51:54;;;;;;;26.80;13.18;;;;;;;;;;6287393;22;20177;-86
2022/03/30 01:55:00;;;;;;;22.23;12.05;;;;;;;;;;6264906;22;20178;-85
2022/03/30 01:58:05;;;;;;;25.48;11.90;;;;;;;;;;6265405;22;20628;-85
2022/03/30 02:01:10;;;;;;;22.92;10.80;;;;;;;;;;6263630;22;20162;-87
2022/03/30 02:04:15;;;;;;;24.55;11.00;;;;;;;;;;6264976;22;20204;-87
2022/03/30 02:07:21;;;;;;;24.90;11.52;;;;;;;;;;6264768;22;20265;-88
2022/03/30 02:10:29;;;;;;;27.15;12.18;;;;;;;;;;6266284;22;20774;-87
2022/03/30 02:13:34;;;;;;;23.35;10.93;;;;;;;;;;6285185;22;20166;-87
2022/03/30 02:16:39;;;;;;;23.98;12.40;;;;;;;;;;6265126;22;20192;-87
2022/03/30 02:19:44;;;;;;;28.33;11.75;;;;;;;;;;6263949;22;20669;-87
2022/03/30 02:22:49;;;;;;;26.90;11.85;;;;;;;;;;6266493;22;20150;-86
2022/03/30 02:25:56;;;;;;;24.77;10.95;;;;;;;;;;6266284;22;20504;-86
2022/03/30 02:29:01;;;;;;;24.23;11.50;;;;;;;;;;6266585;22;20197;-85
2022/03/30 02:32:06;;;;;;;25.25;11.45;;;;;;;;;;6284678;22;20166;-86
2022/03/30 02:35:12;;;;;;;23.23;11.20;;;;;;;;;;6265918;22;20649;-85
2022/03/30 02:38:17;;;;;;;32.80;11.70;;;;;;;;;;6264619;22;20546;-86
2022/03/30 02:41:23;;;;;;;26.15;12.13;;;;;;;;;;6285527;22;20165;-86
2022/03/30 02:44:28;;;;;;;28.05;13.00;;;;;;;;;;6265991;22;20162;-87
2022/03/30 02:50:58;;;;;;;30.17;13.75;;;;;;;;;;6266272;22;20169;-86
2022/03/30 02:54:03;;;;;;;31.08;14.88;;;;;;;;;;6264959;22;20166;-86
2022/03/30 02:57:09;;;;;;;35.00;14.50;;;;;;;;;;6265461;22;20178;-86
2022/03/30 03:00:15;;;;;;;31.73;14.38;;;;;;;;;;6266959;22;20170;-85
2022/03/30 03:03:21;;;;;;;31.65;14.90;;;;;;;;;;6268111;22;20182;-85
2022/03/30 03:06:25;;;;;;;27.53;13.10;;;;;;;;;;6265743;22;20165;-85
2022/03/30 03:09:30;;;;;;;32.10;13.82;;;;;;;;;;6265443;22;20256;-86
2022/03/30 03:12:36;;;;;;;32.00;13.75;;;;;;;;;;6266380;22;20146;-87
2022/03/30 03:15:42;;;;;;;29.58;13.45;;;;;;;;;;6266907;22;20173;-85
2022/03/30 03:18:50;;;;;;;29.30;13.65;;;;;;;;;;6267988;22;20176;-86
2022/03/30 03:21:54;;;;;;;29.77;14.77;;;;;;;;;;6266258;22;20214;-86
2022/03/30 03:24:59;;;;;;;34.42;16.13;;;;;;;;;;6268158;22;20617;-86
2022/03/30 03:28:06;;;;;;;29.52;13.85;;;;;;;;;;6267956;22;20238;-86
2022/03/30 03:31:11;;;;;;;29.70;14.32;;;;;;;;;;6267904;22;20543;-84
2022/03/30 03:34:16;;;;;;;35.30;15.20;;;;;;;;;;6286550;22;20165;-86
2022/03/30 03:37:21;;;;;;;33.40;15.43;;;;;;;;;;6268185;22;20609;-86
2022/03/30 03:40:27;;;;;;;32.45;15.05;;;;;;;;;;6268426;22;20169;-85
2022/03/30 03:43:34;;;;;;;30.50;14.55;;;;;;;;;;6285727;22;20561;-85
2022/03/30 03:46:39;;;;;;;28.03;15.17;;;;;;;;;;6267854;22;20225;-85
2022/03/30 03:49:44;;;;;;;30.33;15.07;;;;;;;;;;6267440;22;20193;-85
2022/03/30 03:52:49;;;;;;;32.00;15.90;;;;;;;;;;6266947;22;20452;-85
2022/03/30 03:55:54;;;;;;;30.13;15.60;;;;;;;;;;6266645;22;20239;-84
2022/03/30 03:59:00;;;;;;;30.23;14.13;;;;;;;;;;6266873;22;20604;-86
2022/03/30 04:02:32;;;;;;;29.80;14.70;;;;;;;;;;6266025;22;20197;-86
2022/03/30 04:05:37;;;;;;;31.57;14.20;;;;;;;;;;6267736;22;20170;-87
2022/03/30 04:08:43;;;;;;;28.17;13.83;;;;;;;;;;6267940;22;20213;-87
2022/03/30 04:11:47;;;;;;;27.77;14.20;;;;;;;;;;6267973;22;20166;-86
2022/03/30 04:14:53;;;;;;;29.02;14.48;;;;;;;;;;6285145;22;20330;-86
2022/03/30 04:18:03;;;;;;;28.70;14.30;;;;;;;;;;6266414;22;20269;-86
2022/03/30 04:21:08;;;;;;;32.37;15.40;;;;;;;;;;6267726;22;20621;-85
2022/03/30 04:24:13;;;;;;;31.63;14.98;;;;;;;;;;6282768;22;20276;-86
2022/03/30 04:27:18;;;;;;;33.28;15.32;;;;;;;;;;6264581;22;20165;-87
2022/03/30 04:30:25;;;;;;;31.48;15.68;;;;;;;;;;6263743;22;20180;-86
2022/03/30 04:33:30;;;;;;;27.80;15.13;;;;;;;;;;6283106;22;20172;-85
2022/03/30 04:36:35;;;;;;;31.38;16.20;;;;;;;;;;6264027;22;20288;-86
2022/03/30 04:39:40;;;;;;;31.55;15.80;;;;;;;;;;6264220;22;20166;-86
2022/03/30 04:42:45;;;;;;;37.95;15.88;;;;;;;;;;6265115;22;20672;-87
2022/03/30 04:45:51;;;;;;;32.38;15.10;;;;;;;;;;6264607;22;20538;-86
2022/03/30 04:48:56;;;;;;;31.23;15.52;;;;;;;;;;6266350;22;20197;-85
2022/03/30 04:52:02;;;;;;;30.42;15.40;;;;;;;;;;6265463;22;20509;-85
2022/03/30 04:55:07;;;;;;;26.75;13.93;;;;;;;;;;6266029;22;20173;-83
2022/03/30 04:58:12;;;;;;;30.13;14.93;;;;;;;;;;6284104;22;20238;-85
2022/03/30 05:01:19;;;;;;;29.73;15.43;;;;;;;;;;6263372;22;20536;-86
2022/03/30 05:04:24;;;;;;;33.80;15.30;;;;;;;;;;6265508;22;20173;-85
2022/03/30 05:07:29;;;;;;;32.67;16.27;;;;;;;;;;6265369;22;20170;-86
2022/03/30 05:10:34;;;;;;;35.97;15.80;;;;;;;;;;6266913;22;20193;-86
2022/03/30 05:13:39;;;;;;;30.63;15.73;;;;;;;;;;6264717;22;20174;-85
2022/03/30 05:16:53;;;;;;;30.63;15.57;;;;;;;;;;6283074;22;20189;-86
2022/03/30 05:19:58;;;;;;;31.30;15.33;;;;;;;;;;6267107;22;20165;-86
2022/03/30 05:23:04;;;;;;;29.43;15.07;;;;;;;;;;6264912;22;20165;-86
2022/03/30 05:26:09;;;;;;;38.25;15.88;;;;;;;;;;6266364;22;20166;-85
2022/03/30 05:29:14;;;;;;;33.88;15.23;;;;;;;;;;6265980;22;20192;-86
2022/03/30 05:32:20;;;;;;;31.80;14.18;;;;;;;;;;6267143;22;20192;-86
2022/03/30 05:35:26;;;;;;;31.88;14.48;;;;;;;;;;6266095;22;20171;-85
2022/03/30 05:38:30;;;;;;;32.33;14.88;;;;;;;;;;6267709;22;20170;-86
2022/03/30 05:41:35;;;;;;;35.35;15.90;;;;;;;;;;6268403;22;20620;-86
2022/03/30 05:44:40;;;;;;;31.15;15.05;;;;;;;;;;6266750;22;20220;-86
2022/03/30 05:47:46;;;;;;;32.72;14.55;;;;;;;;;;6265761;22;20182;-86
2022/03/30 05:50:53;;;;;;;29.88;14.32;;;;;;;;;;6265296;22;20253;-86
2022/03/30 05:53:58;;;;;;;30.85;15.73;;;;;;;;;;6265831;22;20200;-86
2022/03/30 05:57:05;;;;;;;30.75;14.43;;;;;;;;;;6264178;22;20173;-85
2022/03/30 06:00:10;;;;;;;37.05;15.32;;;;;;;;;;6265595;22;20177;-85
2022/03/30 06:03:20;;;;;;;41.17;15.88;;;;;;;;;;6284345;22;20190;-86
2022/03/30 06:06:25;;;;;;;32.75;15.88;;;;;;;;;;6282277;22;20192;-84
2022/03/30 06:09:33;;;;;;;34.75;16.30;;;;;;;;;;6266111;22;20212;-85
2022/03/30 06:12:39;;;;;;;42.67;16.20;;;;;;;;;;6284637;22;20170;-83
2022/03/30 06:15:43;;;;;;;32.78;16.15;;;;;;;;;;6265128;22;20196;-84
2022/03/30 06:18:50;;;;;;;33.33;15.60;;;;;;;;;;6265524;22;20169;-85
2022/03/30 06:21:55;;;;;;;30.08;15.82;;;;;;;;;;6284078;22;20214;-86
2022/03/30 06:25:01;;;;;;;32.30;16.08;;;;;;;;;;6264183;22;20665;-86
2022/03/30 06:28:05;;;;;;;35.65;16.63;;;;;;;;;;6265074;22;20304;-85
2022/03/30 06:31:13;;;;;;;35.65;16.23;;;;;;;;;;6266315;22;20169;-87
2022/03/30 06:34:19;;;;;;;35.00;16.38;;;;;;;;;;6268157;22;20166;-87
2022/03/30 06:37:24;;;;;;;36.58;15.65;;;;;;;;;;6266837;22;20189;-86
2022/03/30 06:40:29;;;;;;;42.83;16.00;;;;;;;;;;6268032;22;20178;-84
2022/03/30 06:43:36;;;;;;;36.65;16.25;;;;;;;;;;6265670;22;20248;-84
2022/03/30 06:46:40;;;;;;;33.60;15.63;;;;;;;;;;6267237;22;20173;-85
2022/03/30 06:49:46;;;;;;;39.40;16.52;;;;;;;;;;6286484;22;20185;-85
2022/03/30 06:52:51;;;;;;;37.40;15.82;;;;;;;;;;6286573;22;20304;-85
2022/03/30 06:55:57;;;;;;;36.58;16.52;;;;;;;;;;6263992;22;20222;-85
2022/03/30 06:59:02;;;;;;;36.80;16.55;;;;;;;;;;6265738;22;20166;-86
2022/03/30 07:02:07;;;;;;;33.50;15.82;;;;;;;;;;6265486;22;20182;-85
2022/03/30 07:05:14;;;;;;;41.70;16.90;;;;;;;;;;6265136;22;20174;-86
2022/03/30 07:11:42;;;;;;;31.92;16.48;;;;;;;;;;6264902;22;20181;-85
2022/03/30 07:14:47;;;;;;;38.38;16.02;;;;;;;;;;6264972;22;20184;-85
2022/03/30 07:17:52;;;;;;;30.80;15.55;;;;;;;;;;6265363;22;20212;-85
2022/03/30 07:20:59;;;;;;;40.35;15.60;;;;;;;;;;6285214;22;20166;-85
2022/03/30 07:24:04;;;;;;;43.55;16.45;;;;;;;;;;6266658;22;20165;-86
2022/03/30 07:27:09;;;;;;;43.58;16.55;;;;;;;;;;6266014;22;20170;-86
2022/03/30 07:30:15;;;;;;;33.13;14.60;;;;;;;;;;6265488;22;20231;-85
2022/03/30 07:33:20;;;;;;;40.53;15.02;;;;;;;;;;6268624;22;20169;-86
2022/03/30 07:36:30;;;;;;;28.80;14.18;;;;;;;;;;6267112;22;20181;-85
2022/03/30 07:39:35;;;;;;;37.05;15.18;;;;;;;;;;6284571;22;20619;-85
2022/03/30 07:42:40;;;;;;;42.83;15.40;;;;;;;;;;6267322;22;20173;-86
2022/03/30 07:45:45;;;;;;;40.78;14.93;;;;;;;;;;6266081;22;20208;-86
2022/03/30 07:48:50;;;;;;;36.30;15.02;;;;;;;;;;6265380;22;20166;-86
2022/03/30 07:52:00;;;;;;;31.73;14.88;;;;;;;;;;6268624;22;20222;-84
2022/03/30 07:55:06;;;;;;;30.85;14.63;;;;;;;;;;6265909;22;20173;-86
2022/03/30 07:58:11;;;;;;;33.45;14.52;;;;;;;;;;6268267;22;20275;-86
2022/03/30 08:01:17;;;;;;;28.33;14.18;;;;;;;;;;6266006;22;20616;-86
2022/03/30 08:04:23;;;;;;;38.17;15.63;;;;;;;;;;6265011;22;20672;-86
2022/03/30 08:07:30;;;;;;;41.58;15.65;;;;;;;;;;6264898;22;20224;-87
2022/03/30 08:10:35;;;;;;;38.03;16.13;;;;;;;;;;6263721;22;20193;-87
2022/03/30 08:13:40;;;;;;;31.23;15.65;;;;;;;;;;6266006;22;20181;-88
2022/03/30 08:16:48;;;;;;;33.55;14.60;;;;;;;;;;6265874;22;20223;-86
2022/03/30 08:19:54;;;;;;;37.05;15.00;;;;;;;;;;6265650;22;20165;-85
2022/03/30 08:22:59;;;;;;;36.90;15.65;;;;;;;;;;6266000;22;20173;-86
2022/03/30 08:26:05;;;;;;;27.83;14.27;;;;;;;;;;6265327;22;20189;-87
2022/03/30 08:29:10;;;;;;;36.63;15.05;;;;;;;;;;6265293;22;20281;-86
2022/03/30 08:32:16;;;;;;;30.73;14.70;;;;;;;;;;6266676;22;20174;-84
2022/03/30 08:35:21;;;;;;;33.35;15.02;;;;;;;;;;6271630;22;20166;-85
2022/03/30 08:38:28;;;;;;;40.08;14.75;;;;;;;;;;6267324;22;20174;-86
2022/03/30 08:41:33;;;;;;;33.58;14.45;;;;;;;;;;6263360;22;20668;-85
2022/03/30 08:44:38;;;;;;;35.75;15.05;;;;;;;;;;6265052;22;20182;-85
2022/03/30 08:47:43;;;;;;;30.27;13.23;;;;;;;;;;6265775;22;20172;-86
2022/03/30 08:50:49;;;;;;;35.40;13.38;;;;;;;;;;6264330;22;20617;-86
2022/03/30 08:53:56;;;;;;;34.90;13.88;;;;;;;;;;6265668;22;20174;-85
2022/03/30 08:57:01;;;;;;;31.23;14.32;;;;;;;;;;6265236;22;20181;-86
2022/03/30 09:00:09;;;;;;;29.65;13.82;;;;;;;;;;6266011;22;20166;-85
2022/03/30 09:03:17;;;;;;;38.10;15.02;;;;;;;;;;6267676;22;20209;-85
2022/03/30 09:06:30;;;;;;;32.88;13.68;;;;;;;;;;6267792;22;20194;-86
2022/03/30 09:09:38;;;;;;;31.67;13.98;;;;;;;;;;6269583;22;20233;-85
2022/03/30 09:12:44;;;;;;;33.67;15.00;;;;;;;;;;6269535;22;20256;-87
2022/03/30 09:15:51;;;;;;;35.97;14.30;;;;;;;;;;6267124;22;20678;-86
2022/03/30 09:19:05;;;;;;;36.78;14.05;;;;;;;;;;6270970;22;20755;-85
2022/03/30 09:22:11;;;;;;;32.00;14.43;;;;;;;;;;6267898;22;20186;-85
2022/03/30 09:25:18;;;;;;;36.40;14.27;;;;;;;;;;6269213;22;20175;-84
2022/03/30 09:28:23;;;;;;;34.85;15.00;;;;;;;;;;6266428;22;20185;-84
2022/03/30 09:31:30;;;;;;;34.70;14.07;;;;;;;;;;6284590;22;20203;-84
2022/03/30 09:34:35;;;;;;;42.15;16.13;;;;;;;;;;6262958;22;20170;-85
2022/03/30 09:37:43;;;;;;;45.17;16.02;;;;;;;;;;6263976;22;20173;-85
2022/03/30 09:40:50;;;;;;;31.55;15.45;;;;;;;;;;6264777;22;20632;-85
2022/03/30 09:44:03;;;;;;;36.40;15.63;;;;;;;;;;6286601;22;20257;-85
2022/03/30 09:47:08;;;;;;;32.00;15.73;;;;;;;;;;6284330;22;20623;-86
2022/03/30 09:50:13;;;;;;;30.52;15.18;;;;;;;;;;6266895;22;20208;-85
2022/03/30 09:53:20;;;;;;;39.22;16.63;;;;;;;;;;6264747;22;20529;-86
2022/03/30 09:56:27;;;;;;;36.40;15.68;;;;;;;;;;6265007;22;20331;-84
2022/03/30 09:59:52;;;;;;;33.00;15.43;;;;;;;;;;6267739;22;20200;-85
2022/03/30 10:02:57;;;;;;;31.88;16.15;;;;;;;;;;6266236;22;20169;-86
2022/03/30 10:06:02;;;;;;;43.13;15.88;;;;;;;;;;6266858;22;20173;-85
2022/03/30 10:09:08;;;;;;;35.63;17.27;;;;;;;;;;6267723;22;20174;-85
2022/03/30 10:12:17;;;;;;;37.22;17.15;;;;;;;;;;6269166;22;20169;-85
2022/03/30 10:15:22;;;;;;;34.47;15.55;;;;;;;;;;6266420;22;20271;-85
2022/03/30 10:18:27;;;;;;;37.60;15.30;;;;;;;;;;6267508;22;20174;-85
2022/03/30 10:21:32;;;;;;;40.90;15.93;;;;;;;;;;6268414;22;20166;-85
2022/03/30 10:24:50;;;;;;;40.30;15.90;;;;;;;;;;6268550;22;20250;-85
2022/03/30 10:27:58;;;;;;;34.60;15.23;;;;;;;;;;6267658;22;20173;-85
2022/03/30 10:31:07;;;;;;;38.38;14.68;;;;;;;;;;6270630;22;20268;-86
2022/03/30 10:34:25;;;;;;;30.67;12.35;;;;;;;;;;6265551;22;20682;-84
2022/03/30 10:37:30;;;;;;;34.47;13.48;;;;;;;;;;6285462;22;20244;-85
2022/03/30 10:40:37;;;;;;;44.58;15.73;;;;;;;;;;6266816;22;20299;-84
2022/03/30 10:43:43;;;;;;;41.75;13.35;;;;;;;;;;6268588;22;20165;-85
2022/03/30 10:47:06;;;;;;;33.95;10.65;;;;;;;;;;6268400;22;20174;-85
2022/03/30 10:50:15;;;;;;;36.45;11.10;;;;;;;;;;6267904;22;20194;-83
2022/03/30 10:53:34;;;;;;;33.88;11.10;;;;;;;;;;6266797;22;20203;-85
2022/03/30 10:56:39;;;;;;;37.88;11.68;;;;;;;;;;6267132;22;20280;-85
2022/03/30 11:00:05;;;;;;;40.00;10.52;;;;;;;;;;6267288;22;20169;-84
2022/03/30 11:03:12;;;;;;;48.20;11.20;;;;;;;;;;6265957;22;20256;-86
2022/03/30 11:06:17;;;;;;;42.50;11.63;;;;;;;;;;6266810;22;20632;-88
2022/03/30 11:09:23;;;;;;;31.60;11.20;;;;;;;;;;6268413;22;20173;-87
2022/03/30 11:12:28;;;;;;;36.30;10.45;;;;;;;;;;6265812;22;20161;-86
2022/03/30 11:15:55;;;;;;;37.45;10.93;;;;;;;;;;6266073;22;20586;-86
2022/03/30 11:19:02;;;;;;;47.50;11.45;;;;;;;;;;6267520;22;20161;-86
2022/03/30 11:22:09;;;;;;;38.90;11.07;;;;;;;;;;6264454;22;20180;-85
2022/03/30 11:25:18;;;;;;;34.40;10.77;;;;;;;;;;6265473;22;20172;-85
2022/03/30 11:28:35;;;;;;;35.35;11.93;;;;;;;;;;6267725;22;20157;-86
2022/03/30 11:31:41;;;;;;;32.53;11.80;;;;;;;;;;6265201;22;20190;-85
2022/03/30 11:34:47;;;;;;;49.17;12.65;;;;;;;;;;6264696;22;20226;-86
2022/03/30 11:37:57;;;;;;;36.50;12.18;;;;;;;;;;6268610;22;20173;-85
2022/03/30 11:41:06;;;;;;;36.90;11.95;;;;;;;;;;6265251;22;20173;-86
2022/03/30 11:47:37;;;;;;;37.58;8.93;;;;;;;;;;6286470;22;20262;-84
2022/03/30 11:50:43;;;;;;;27.45;7.80;;;;;;;;;;6267131;22;20185;-85
2022/03/30 11:53:48;;;;;;;35.05;9.20;;;;;;;;;;6264594;22;20208;-86
2022/03/30 11:56:53;;;;;;;25.92;6.57;;;;;;;;;;6281570;22;20169;-86
2022/03/30 12:00:00;;;;;;;24.80;7.88;;;;;;;;;;6283373;22;20170;-86
2022/03/30 12:03:08;;;;;;;33.60;7.05;;;;;;;;;;6283445;22;20212;-85
2022/03/30 12:06:13;;;;;;;33.17;6.40;;;;;;;;;;6266877;22;20236;-85
2022/03/30 12:09:18;;;;;;;26.40;7.10;;;;;;;;;;6285525;22;20169;-86
2022/03/30 12:12:27;;;;;;;34.20;7.53;;;;;;;;;;6264769;22;20189;-83
2022/03/30 12:15:35;;;;;;;27.98;6.78;;;;;;;;;;6282662;22;20189;-85
2022/03/30 12:18:45;;;;;;;29.25;6.65;;;;;;;;;;6283840;22;20635;-86
2022/03/30 12:21:50;;;;;;;29.55;6.90;;;;;;;;;;6284082;22;20628;-85
2022/03/30 12:24:55;;;;;;;30.98;7.55;;;;;;;;;;6284482;22;20242;-85
2022/03/30 12:28:01;;;;;;;23.17;7.53;;;;;;;;;;6264867;22;20681;-85
2022/03/30 12:31:07;;;;;;;32.65;7.60;;;;;;;;;;6281101;22;20178;-85
2022/03/30 12:34:17;;;;;;;36.17;7.82;;;;;;;;;;6265305;22;20247;-86
2022/03/30 12:37:23;;;;;;;32.88;7.15;;;;;;;;;;6283771;22;20169;-84
2022/03/30 12:40:34;;;;;;;20.80;6.75;;;;;;;;;;6283964;22;20178;-86
2022/03/30 12:43:42;;;;;;;35.75;8.50;;;;;;;;;;6263537;22;20184;-86
2022/03/30 12:46:47;;;;;;;27.45;7.93;;;;;;;;;;6280648;22;20281;-86
2022/03/30 12:49:55;;;;;;;33.20;8.35;;;;;;;;;;6283691;22;20605;-85
2022/03/30 12:53:05;;;;;;;26.48;7.45;;;;;;;;;;6266042;22;20165;-85
2022/03/30 12:56:17;;;;;;;27.15;8.20;;;;;;;;;;6264347;22;20222;-85
2022/03/30 12:59:24;;;;;;;32.33;7.78;;;;;;;;;;6263677;22;20170;-85
2022/03/30 13:02:29;;;;;;;29.38;8.30;;;;;;;;;;6281653;22;20492;-85
2022/03/30 13:05:36;;;;;;;47.72;19.67;;;;;;;;;;6264926;22;20173;-85
2022/03/30 13:08:41;;;;;;;34.17;7.93;;;;;;;;;;6265212;22;20632;-85
2022/03/30 13:11:49;;;;;;;30.58;7.47;;;;;;;;;;6265586;22;20193;-85
2022/03/30 13:14:54;;;;;;;40.22;8.13;;;;;;;;;;6283481;22;20188;-85
2022/03/30 13:18:00;;;;;;;38.35;7.68;;;;;;;;;;6265234;22;20287;-86
2022/03/30 13:21:10;;;;;;;31.10;8.10;;;;;;;;;;6285580;22;20161;-86
2022/03/30 13:24:17;;;;;;;26.48;7.65;;;;;;;;;;6267030;22;20177;-85
2022/03/30 13:27:24;;;;;;;30.05;7.40;;;;;;;;;;6284711;22;20675;-87
2022/03/30 13:30:29;;;;;;;37.88;8.70;;;;;;;;;;6284340;22;20169;-85
2022/03/30 13:33:36;;;;;;;31.30;8.07;;;;;;;;;;6286448;22;20253;-85
2022/03/30 13:36:43;;;;;;;35.20;8.25;;;;;;;;;;6283554;22;20169;-86
2022/03/30 13:39:48;;;;;;;27.23;8.00;;;;;;;;;;6265578;22;20162;-85
2022/03/30 13:42:54;;;;;;;34.65;8.68;;;;;;;;;;6282880;22;20216;-85
2022/03/30 13:45:59;;;;;;;32.13;7.85;;;;;;;;;;6286561;22;20177;-85
2022/03/30 13:49:04;;;;;;;24.02;7.40;;;;;;;;;;6283362;22;20173;-85
2022/03/30 13:52:14;;;;;;;31.40;7.93;;;;;;;;;;6264920;22;20193;-85
2022/03/30 13:55:20;;;;;;;28.85;7.85;;;;;;;;;;6282768;22;20170;-86
2022/03/30 13:58:25;;;;;;;25.40;7.53;;;;;;;;;;6281296;22;20204;-86
2022/03/30 14:01:32;;;;;;;25.63;7.80;;;;;;;;;;6268290;22;20217;-86
2022/03/30 14:04:38;;;;;;;21.88;7.18;;;;;;;;;;6284987;22;20174;-85
2022/03/30 14:07:45;;;;;;;34.78;7.95;;;;;;;;;;6270092;22;20157;-87
2022/03/30 14:10:52;;;;;;;32.13;8.38;;;;;;;;;;6286891;22;20247;-86
2022/03/30 14:14:00;;;;;;;30.05;8.88;;;;;;;;;;6267922;22;20224;-86
2022/03/30 14:17:05;;;;;;;35.03;8.80;;;;;;;;;;6283534;22;20284;-86
2022/03/30 14:20:11;;;;;;;33.35;8.95;;;;;;;;;;6286583;22;20193;-85
2022/03/30 14:23:18;;;;;;;37.67;8.70;;;;;;;;;;6285981;22;20208;-85
2022/03/30 14:29:42;;;;;;;31.42;9.95;;;;;;;;;;6287318;22;20165;-85
2022/03/30 14:32:47;;;;;;;35.35;9.57;;;;;;;;;;6265996;22;20201;-85
2022/03/30 14:35:54;;;;;;;26.95;8.40;;;;;;;;;;6284758;22;20173;-85
2022/03/30 14:39:00;;;;;;;35.08;9.23;;;;;;;;;;6285359;22;20619;-87
2022/03/30 14:42:05;;;;;;;35.35;9.35;;;;;;;;;;6286279;22;20504;-84
2022/03/30 14:45:12;;;;;;;31.10;8.98;;;;;;;;;;6281523;22;20679;-84
2022/03/30 14:48:17;;;;;;;27.23;8.35;;;;;;;;;;6263507;22;20246;-85
2022/03/30 14:51:22;;;;;;;38.45;9.00;;;;;;;;;;6280928;22;20315;-85
2022/03/30 14:54:29;;;;;;;32.58;9.07;;;;;;;;;;6283480;22;20182;-87
2022/03/30 14:57:34;;;;;;;35.28;9.45;;;;;;;;;;6266044;22;20166;-87
2022/03/30 15:00:40;;;;;;;31.00;7.50;;;;;;;;;;6291761;22;20169;-85
2022/03/30 15:03:46;;;;;;;29.30;8.30;;;;;;;;;;6287269;22;20166;-85
2022/03/30 15:06:51;;;;;;;32.97;9.40;;;;;;;;;;6285588;22;20164;-85
2022/03/30 15:09:58;;;;;;;29.30;9.18;;;;;;;;;;6282826;22;20174;-84
2022/03/30 15:13:03;;;;;;;24.83;8.02;;;;;;;;;;6268079;22;20193;-85
2022/03/30 15:16:08;;;;;;;31.70;8.48;;;;;;;;;;6266654;22;20193;-85
2022/03/30 15:19:13;;;;;;;32.45;9.10;;;;;;;;;;6285564;22;20158;-85
2022/03/30 15:22:20;;;;;;;29.27;9.30;;;;;;;;;;6286534;22;20170;-86
2022/03/30 15:25:26;;;;;;;27.48;8.73;;;;;;;;;;6286493;22;20173;-85
2022/03/30 15:28:31;;;;;;;27.48;8.65;;;;;;;;;;6284584;22;20313;-85
2022/03/30 15:31:37;;;;;;;32.75;8.85;;;;;;;;;;6284762;22;20264;-85
2022/03/30 15:34:42;;;;;;;42.20;9.27;;;;;;;;;;6267751;22;20166;-84
2022/03/30 15:37:48;;;;;;;27.60;8.68;;;;;;;;;;6271591;22;20208;-87
2022/03/30 15:40:54;;;;;;;31.27;9.82;;;;;;;;;;6283731;22;20193;-85
2022/03/30 15:44:00;;;;;;;36.67;9.02;;;;;;;;;;6264229;22;20162;-87
2022/03/30 15:47:06;;;;;;;27.27;8.67;;;;;;;;;;6282767;22;20409;-86
2022/03/30 15:50:11;;;;;;;31.58;9.70;;;;;;;;;;6267879;22;20297;-85
2022/03/30 15:53:17;;;;;;;32.25;10.25;;;;;;;;;;6286801;22;20201;-87
2022/03/30 15:56:27;;;;;;;39.15;9.85;;;;;;;;;;6265228;22;20496;-86
2022/03/30 15:59:33;;;;;;;27.73;9.43;;;;;;;;;;6287072;22;20216;-87
2022/03/30 16:02:39;;;;;;;36.78;9.10;;;;;;;;;;6266467;22;20166;-84
2022/03/30 16:05:45;;;;;;;32.50;8.88;;;;;;;;;;6282497;22;20513;-85
2022/03/30 16:08:58;;;;;;;29.17;9.50;;;;;;;;;;6267510;22;20157;-85
2022/03/30 16:12:16;;;;;;;41.75;9.57;;;;;;;;;;6268267;22;20193;-86
2022/03/30 16:15:21;;;;;;;31.20;9.30;;;;;;;;;;6284182;22;20219;-86
2022/03/30 16:18:26;;;;;;;37.85;10.32;;;;;;;;;;6282922;22;20178;-86
2022/03/30 16:21:31;;;;;;;37.08;9.65;;;;;;;;;;6264489;22;20552;-85
2022/03/30 16:24:37;;;;;;;37.40;10.25;;;;;;;;;;6282160;22;20173;-87
2022/03/30 16:27:43;;;;;;;30.45;11.25;;;;;;;;;;6265781;22;20264;-86
2022/03/30 16:30:48;;;;;;;34.63;11.15;;;;;;;;;;6263988;22;20170;-84
2022/03/30 16:33:54;;;;;;;37.75;12.45;;;;;;;;;;6264909;22;20209;-84
2022/03/30 16:36:59;;;;;;;51.47;15.00;;;;;;;;;;6264243;22;20165;-87
2022/03/30 16:40:10;;;;;;;34.42;11.13;;;;;;;;;;6262876;22;20166;-86
2022/03/30 16:43:17;;;;;;;38.50;11.75;;;;;;;;;;6263935;22;20162;-86
2022/03/30 16:46:22;;;;;;;39.53;11.70;;;;;;;;;;6276279;22;20166;-86
2022/03/30 16:49:27;;;;;;;32.35;11.88;;;;;;;;;;6263974;22;20207;-85
2022/03/30 16:52:32;;;;;;;31.15;12.30;;;;;;;;;;6264600;22;20196;-85
2022/03/30 16:55:37;;;;;;;35.55;11.50;;;;;;;;;;6264709;22;20471;-86
2022/03/30 16:58:47;;;;;;;35.85;12.82;;;;;;;;;;6265370;22;20169;-87
2022/03/30 17:01:53;;;;;;;32.97;12.23;;;;;;;;;;6280654;22;20170;-87
2022/03/30 17:04:58;;;;;;;37.63;10.43;;;;;;;;;;6263193;22;20173;-86
2022/03/30 17:11:26;;;;;;;33.13;11.25;;;;;;;;;;6263663;22;20162;-86
2022/03/30 17:14:32;;;;;;;32.40;10.27;;;;;;;;;;6261961;22;20497;-86
2022/03/30 17:17:37;;;;;;;27.23;11.60;;;;;;;;;;6263335;22;20166;-85
2022/03/30 17:20:42;;;;;;;32.70;11.20;;;;;;;;;;6264420;22;20169;-85
2022/03/30 17:23:47;;;;;;;27.80;10.23;;;;;;;;;;6263262;22;20170;-84
2022/03/30 17:26:52;;;;;;;35.63;12.98;;;;;;;;;;6261697;22;20629;-87
2022/03/30 17:29:59;;;;;;;33.70;10.85;;;;;;;;;;6263209;22;20275;-85
2022/03/30 17:33:03;;;;;;;33.22;10.43;;;;;;;;;;6261901;22;20309;-84
2022/03/30 17:36:10;;;;;;;24.90;10.57;;;;;;;;;;6261874;22;20226;-84
2022/03/30 17:39:14;;;;;;;33.15;11.68;;;;;;;;;;6263240;22;20166;-85
2022/03/30 17:42:25;;;;;;;33.65;11.15;;;;;;;;;;6262374;22;20165;-87
2022/03/30 17:45:32;;;;;;;28.27;11.15;;;;;;;;;;6262128;22;20174;-86
2022/03/30 17:52:02;;;;;;;31.30;11.55;;;;;;;;;;6264762;22;20185;-85
2022/03/30 17:55:08;;;;;;;29.83;12.27;;;;;;;;;;6262376;22;20170;-85
2022/03/30 17:58:15;;;;;;;31.58;12.73;;;;;;;;;;6263661;22;20174;-87
2022/03/30 18:01:22;;;;;;;32.63;12.48;;;;;;;;;;6264292;22;20170;-86
2022/03/30 18:04:28;;;;;;;38.10;12.88;;;;;;;;;;6263076;22;20233;-85
2022/03/30 18:07:33;;;;;;;34.30;12.57;;;;;;;;;;6263667;22;20174;-86
2022/03/30 18:10:40;;;;;;;39.15;13.27;;;;;;;;;;6262718;22;20157;-85
2022/03/30 18:13:51;;;;;;;39.38;15.38;;;;;;;;;;6264893;22;20189;-85
2022/03/30 18:17:10;;;;;;;39.05;14.23;;;;;;;;;;6261102;22;20197;-86
2022/03/30 18:20:16;;;;;;;39.63;14.77;;;;;;;;;;6261831;22;20166;-86
2022/03/30 18:23:21;;;;;;;38.88;14.57;;;;;;;;;;6262652;22;20251;-87
2022/03/30 18:26:26;;;;;;;47.28;13.60;;;;;;;;;;6263297;22;20713;-84
2022/03/30 18:29:32;;;;;;;32.22;13.13;;;;;;;;;;6283342;22;20169;-87
2022/03/30 18:32:38;;;;;;;34.30;13.70;;;;;;;;;;6266411;22;20189;-86
2022/03/30 18:35:43;;;;;;;35.10;13.05;;;;;;;;;;6264444;22;20645;-87